sensor_id;sensor_type;location;lat;lon;timestamp;P1;durP1;ratioP1;P2;durP2;ratioP2
67378;SDS011;54262;44.642;-0.974;2023-01-16T00:01:21;3.67;;;1.85;;
67378;SDS011;54262;44.642;-0.974;2023-01-16T00:03:47;4.40;;;1.90;;
67378;SDS011;54262;44.642;-0.974;2023-01-16T00:06:13;4.40;;;1.95;;
67378;SDS011;54262;44.642;-0.974;2023-01-16T00:08:40;3.63;;;1.70;;
67378;SDS011;54262;44.642;-0.974;2023-01-16T00:11:06;4.93;;;1.52;;
67378;SDS011;54262;44.642;-0.974;2023-01-16T00:13:32;4.10;;;1.92;;
67378;SDS011;54262;44.642;-0.974;2023-01-16T00:15:58;4.15;;;1.58;;
67378;SDS011;54262;44.642;-0.974;2023-01-16T00:18:24;3.50;;;1.60;;
67378;SDS011;54262;44.642;-0.974;2023-01-16T00:20:51;3.38;;;1.95;;
67378;SDS011;54262;44.642;-0.974;2023-01-16T00:23:17;3.13;;;1.80;;
67378;SDS011;54262;44.642;-0.974;2023-01-16T00:25:43;3.08;;;1.50;;
67378;SDS011;54262;44.642;-0.974;2023-01-16T00:28:10;3.08;;;1.30;;
67378;SDS011;54262;44.642;-0.974;2023-01-16T00:30:37;3.38;;;1.30;;
67378;SDS011;54262;44.642;-0.974;2023-01-16T00:33:03;2.63;;;1.23;;
67378;SDS011;54262;44.642;-0.974;2023-01-16T00:35:29;3.03;;;1.60;;
67378;SDS011;54262;44.642;-0.974;2023-01-16T00:37:56;4.00;;;1.67;;
67378;SDS011;54262;44.642;-0.974;2023-01-16T00:40:22;2.88;;;1.30;;
67378;SDS011;54262;44.642;-0.974;2023-01-16T00:42:48;3.30;;;0.95;;
67378;SDS011;54262;44.642;-0.974;2023-01-16T00:45:14;1.58;;;1.25;;
67378;SDS011;54262;44.642;-0.974;2023-01-16T00:47:40;2.80;;;1.10;;
67378;SDS011;54262;44.642;-0.974;2023-01-16T00:50:06;2.35;;;1.40;;
67378;SDS011;54262;44.642;-0.974;2023-01-16T00:52:32;2.22;;;1.10;;
67378;SDS011;54262;44.642;-0.974;2023-01-16T00:54:58;3.83;;;1.30;;
67378;SDS011;54262;44.642;-0.974;2023-01-16T00:57:25;2.40;;;1.27;;
67378;SDS011;54262;44.642;-0.974;2023-01-16T00:59:51;2.78;;;1.20;;
67378;SDS011;54262;44.642;-0.974;2023-01-16T01:02:17;3.33;;;1.23;;
67378;SDS011;54262;44.642;-0.974;2023-01-16T01:04:43;2.90;;;1.30;;
67378;SDS011;54262;44.642;-0.974;2023-01-16T01:07:09;2.20;;;1.33;;
67378;SDS011;54262;44.642;-0.974;2023-01-16T01:09:35;3.05;;;1.30;;
67378;SDS011;54262;44.642;-0.974;2023-01-16T01:12:01;2.55;;;1.40;;
67378;SDS011;54262;44.642;-0.974;2023-01-16T01:14:27;4.00;;;1.58;;
67378;SDS011;54262;44.642;-0.974;2023-01-16T01:16:53;3.72;;;1.20;;
67378;SDS011;54262;44.642;-0.974;2023-01-16T01:19:19;2.30;;;1.48;;
67378;SDS011;54262;44.642;-0.974;2023-01-16T01:21:46;2.20;;;1.23;;
67378;SDS011;54262;44.642;-0.974;2023-01-16T01:24:12;1.65;;;1.00;;
67378;SDS011;54262;44.642;-0.974;2023-01-16T01:26:38;2.05;;;1.20;;
67378;SDS011;54262;44.642;-0.974;2023-01-16T01:29:04;5.88;;;1.30;;
67378;SDS011;54262;44.642;-0.974;2023-01-16T01:31:30;1.75;;;1.02;;
67378;SDS011;54262;44.642;-0.974;2023-01-16T01:33:56;2.90;;;1.38;;
67378;SDS011;54262;44.642;-0.974;2023-01-16T01:36:22;5.13;;;1.42;;
67378;SDS011;54262;44.642;-0.974;2023-01-16T01:38:48;4.20;;;1.38;;
67378;SDS011;54262;44.642;-0.974;2023-01-16T01:41:15;2.38;;;1.27;;
67378;SDS011;54262;44.642;-0.974;2023-01-16T01:43:46;5.47;;;1.42;;
67378;SDS011;54262;44.642;-0.974;2023-01-16T01:46:36;3.53;;;1.30;;
67378;SDS011;54262;44.642;-0.974;2023-01-16T01:49:10;3.17;;;1.67;;
67378;SDS011;54262;44.642;-0.974;2023-01-16T01:51:40;2.03;;;1.23;;
67378;SDS011;54262;44.642;-0.974;2023-01-16T01:54:09;1.50;;;1.20;;
67378;SDS011;54262;44.642;-0.974;2023-01-16T01:56:43;2.28;;;1.20;;
67378;SDS011;54262;44.642;-0.974;2023-01-16T01:59:12;1.88;;;1.00;;
67378;SDS011;54262;44.642;-0.974;2023-01-16T02:01:40;5.45;;;1.73;;
67378;SDS011;54262;44.642;-0.974;2023-01-16T02:04:10;1.75;;;1.15;;
67378;SDS011;54262;44.642;-0.974;2023-01-16T02:06:43;3.20;;;1.38;;
67378;SDS011;54262;44.642;-0.974;2023-01-16T02:09:10;3.35;;;1.00;;
67378;SDS011;54262;44.642;-0.974;2023-01-16T02:11:38;2.55;;;1.35;;
67378;SDS011;54262;44.642;-0.974;2023-01-16T02:14:07;3.15;;;1.10;;
67378;SDS011;54262;44.642;-0.974;2023-01-16T02:16:33;2.20;;;1.42;;
67378;SDS011;54262;44.642;-0.974;2023-01-16T02:29:43;2.35;;;1.20;;
67378;SDS011;54262;44.642;-0.974;2023-01-16T02:32:17;5.68;;;1.45;;
67378;SDS011;54262;44.642;-0.974;2023-01-16T02:34:51;4.30;;;1.53;;
67378;SDS011;54262;44.642;-0.974;2023-01-16T02:37:24;4.13;;;1.45;;
67378;SDS011;54262;44.642;-0.974;2023-01-16T02:40:00;5.88;;;1.75;;
67378;SDS011;54262;44.642;-0.974;2023-01-16T02:47:43;4.68;;;1.45;;
67378;SDS011;54262;44.642;-0.974;2023-01-16T02:51:12;2.88;;;1.52;;
67378;SDS011;54262;44.642;-0.974;2023-01-16T02:58:46;4.22;;;1.85;;
67378;SDS011;54262;44.642;-0.974;2023-01-16T03:01:13;3.75;;;1.70;;
67378;SDS011;54262;44.642;-0.974;2023-01-16T03:20:10;6.57;;;2.17;;
67378;SDS011;54262;44.642;-0.974;2023-01-16T03:30:07;7.57;;;2.50;;
67378;SDS011;54262;44.642;-0.974;2023-01-16T03:37:40;3.25;;;2.08;;
67378;SDS011;54262;44.642;-0.974;2023-01-16T03:40:08;5.40;;;2.15;;
67378;SDS011;54262;44.642;-0.974;2023-01-16T03:42:36;7.15;;;2.35;;
67378;SDS011;54262;44.642;-0.974;2023-01-16T03:48:00;5.72;;;2.95;;
67378;SDS011;54262;44.642;-0.974;2023-01-16T03:50:29;8.85;;;2.65;;
67378;SDS011;54262;44.642;-0.974;2023-01-16T03:52:57;9.10;;;3.15;;
67378;SDS011;54262;44.642;-0.974;2023-01-16T03:57:55;14.45;;;4.47;;
67378;SDS011;54262;44.642;-0.974;2023-01-16T04:00:23;15.32;;;4.28;;
67378;SDS011;54262;44.642;-0.974;2023-01-16T04:02:53;16.45;;;4.32;;
67378;SDS011;54262;44.642;-0.974;2023-01-16T04:05:26;15.55;;;5.22;;
67378;SDS011;54262;44.642;-0.974;2023-01-16T04:10:19;8.80;;;4.70;;
67378;SDS011;54262;44.642;-0.974;2023-01-16T04:12:49;13.15;;;4.05;;
67378;SDS011;54262;44.642;-0.974;2023-01-16T04:15:16;18.33;;;5.25;;
67378;SDS011;54262;44.642;-0.974;2023-01-16T04:17:43;10.07;;;3.83;;
67378;SDS011;54262;44.642;-0.974;2023-01-16T04:20:09;22.02;;;5.07;;
67378;SDS011;54262;44.642;-0.974;2023-01-16T04:22:35;17.70;;;5.45;;
67378;SDS011;54262;44.642;-0.974;2023-01-16T04:25:03;12.52;;;4.70;;
67378;SDS011;54262;44.642;-0.974;2023-01-16T04:27:30;21.48;;;4.80;;
67378;SDS011;54262;44.642;-0.974;2023-01-16T04:29:56;22.25;;;4.45;;
67378;SDS011;54262;44.642;-0.974;2023-01-16T04:32:22;20.02;;;4.82;;
67378;SDS011;54262;44.642;-0.974;2023-01-16T04:34:48;17.65;;;6.35;;
67378;SDS011;54262;44.642;-0.974;2023-01-16T04:37:14;20.38;;;6.07;;
67378;SDS011;54262;44.642;-0.974;2023-01-16T04:39:41;20.13;;;5.30;;
67378;SDS011;54262;44.642;-0.974;2023-01-16T04:42:07;14.13;;;4.20;;
67378;SDS011;54262;44.642;-0.974;2023-01-16T04:44:33;11.38;;;5.10;;
67378;SDS011;54262;44.642;-0.974;2023-01-16T04:46:59;14.07;;;5.47;;
67378;SDS011;54262;44.642;-0.974;2023-01-16T04:49:25;12.00;;;4.57;;
67378;SDS011;54262;44.642;-0.974;2023-01-16T04:51:51;20.33;;;5.32;;
67378;SDS011;54262;44.642;-0.974;2023-01-16T04:54:17;16.27;;;4.57;;
67378;SDS011;54262;44.642;-0.974;2023-01-16T04:56:44;13.32;;;5.05;;
67378;SDS011;54262;44.642;-0.974;2023-01-16T04:59:10;10.80;;;4.32;;
67378;SDS011;54262;44.642;-0.974;2023-01-16T05:01:37;17.42;;;4.60;;
67378;SDS011;54262;44.642;-0.974;2023-01-16T05:04:04;11.00;;;4.88;;
67378;SDS011;54262;44.642;-0.974;2023-01-16T05:06:31;21.35;;;5.13;;
67378;SDS011;54262;44.642;-0.974;2023-01-16T05:08:57;17.85;;;5.30;;
67378;SDS011;54262;44.642;-0.974;2023-01-16T05:11:23;16.50;;;5.72;;
67378;SDS011;54262;44.642;-0.974;2023-01-16T05:13:49;18.60;;;4.65;;
67378;SDS011;54262;44.642;-0.974;2023-01-16T05:16:15;19.40;;;4.60;;
67378;SDS011;54262;44.642;-0.974;2023-01-16T05:18:41;26.30;;;5.43;;
67378;SDS011;54262;44.642;-0.974;2023-01-16T05:21:07;15.98;;;5.07;;
67378;SDS011;54262;44.642;-0.974;2023-01-16T05:23:33;12.13;;;4.75;;
67378;SDS011;54262;44.642;-0.974;2023-01-16T05:26:00;21.15;;;5.05;;
67378;SDS011;54262;44.642;-0.974;2023-01-16T05:28:27;23.92;;;6.40;;
67378;SDS011;54262;44.642;-0.974;2023-01-16T05:30:53;27.75;;;6.50;;
67378;SDS011;54262;44.642;-0.974;2023-01-16T05:33:19;17.77;;;5.22;;
67378;SDS011;54262;44.642;-0.974;2023-01-16T05:35:45;20.05;;;6.13;;
67378;SDS011;54262;44.642;-0.974;2023-01-16T05:38:12;17.77;;;5.25;;
67378;SDS011;54262;44.642;-0.974;2023-01-16T05:40:38;27.27;;;6.47;;
67378;SDS011;54262;44.642;-0.974;2023-01-16T05:43:04;17.67;;;5.18;;
67378;SDS011;54262;44.642;-0.974;2023-01-16T05:45:30;17.77;;;4.68;;
67378;SDS011;54262;44.642;-0.974;2023-01-16T05:47:57;25.00;;;5.82;;
67378;SDS011;54262;44.642;-0.974;2023-01-16T05:50:23;26.70;;;5.82;;
67378;SDS011;54262;44.642;-0.974;2023-01-16T05:52:49;26.75;;;5.38;;
67378;SDS011;54262;44.642;-0.974;2023-01-16T05:55:15;18.15;;;5.13;;
67378;SDS011;54262;44.642;-0.974;2023-01-16T05:57:41;22.90;;;5.22;;
67378;SDS011;54262;44.642;-0.974;2023-01-16T06:00:08;33.15;;;6.47;;
67378;SDS011;54262;44.642;-0.974;2023-01-16T06:02:34;12.15;;;4.55;;
67378;SDS011;54262;44.642;-0.974;2023-01-16T06:05:00;12.85;;;4.75;;
67378;SDS011;54262;44.642;-0.974;2023-01-16T06:07:26;18.90;;;5.03;;
67378;SDS011;54262;44.642;-0.974;2023-01-16T06:09:52;24.33;;;4.65;;
67378;SDS011;54262;44.642;-0.974;2023-01-16T06:12:19;27.13;;;6.05;;
67378;SDS011;54262;44.642;-0.974;2023-01-16T06:14:45;18.98;;;5.53;;
67378;SDS011;54262;44.642;-0.974;2023-01-16T06:17:12;18.63;;;5.53;;
67378;SDS011;54262;44.642;-0.974;2023-01-16T06:19:44;12.43;;;4.32;;
67378;SDS011;54262;44.642;-0.974;2023-01-16T06:22:10;11.02;;;4.32;;
67378;SDS011;54262;44.642;-0.974;2023-01-16T06:24:36;12.00;;;4.78;;
67378;SDS011;54262;44.642;-0.974;2023-01-16T06:27:02;14.02;;;4.82;;
67378;SDS011;54262;44.642;-0.974;2023-01-16T06:29:29;11.77;;;4.20;;
67378;SDS011;54262;44.642;-0.974;2023-01-16T06:31:55;11.98;;;4.70;;
67378;SDS011;54262;44.642;-0.974;2023-01-16T06:34:21;18.05;;;4.45;;
67378;SDS011;54262;44.642;-0.974;2023-01-16T06:36:47;14.70;;;5.35;;
67378;SDS011;54262;44.642;-0.974;2023-01-16T06:39:14;12.65;;;4.38;;
67378;SDS011;54262;44.642;-0.974;2023-01-16T06:41:40;13.70;;;4.28;;
67378;SDS011;54262;44.642;-0.974;2023-01-16T06:44:06;8.27;;;4.38;;
67378;SDS011;54262;44.642;-0.974;2023-01-16T06:46:32;16.10;;;4.93;;
67378;SDS011;54262;44.642;-0.974;2023-01-16T06:48:58;15.80;;;4.90;;
67378;SDS011;54262;44.642;-0.974;2023-01-16T06:51:24;8.82;;;4.15;;
67378;SDS011;54262;44.642;-0.974;2023-01-16T06:53:50;13.35;;;3.97;;
67378;SDS011;54262;44.642;-0.974;2023-01-16T06:56:16;14.57;;;5.20;;
67378;SDS011;54262;44.642;-0.974;2023-01-16T06:58:42;13.77;;;4.22;;
67378;SDS011;54262;44.642;-0.974;2023-01-16T07:01:09;17.25;;;4.85;;
67378;SDS011;54262;44.642;-0.974;2023-01-16T07:03:35;16.92;;;5.18;;
67378;SDS011;54262;44.642;-0.974;2023-01-16T07:06:01;21.92;;;5.30;;
67378;SDS011;54262;44.642;-0.974;2023-01-16T07:08:27;14.75;;;4.78;;
67378;SDS011;54262;44.642;-0.974;2023-01-16T07:10:53;30.55;;;5.25;;
67378;SDS011;54262;44.642;-0.974;2023-01-16T07:13:20;36.75;;;5.43;;
67378;SDS011;54262;44.642;-0.974;2023-01-16T07:15:52;62.45;;;5.63;;
67378;SDS011;54262;44.642;-0.974;2023-01-16T07:21:21;55.13;;;5.73;;
67378;SDS011;54262;44.642;-0.974;2023-01-16T07:24:08;48.03;;;6.35;;
67378;SDS011;54262;44.642;-0.974;2023-01-16T07:26:37;27.58;;;4.88;;
67378;SDS011;54262;44.642;-0.974;2023-01-16T07:29:05;50.55;;;5.60;;
67378;SDS011;54262;44.642;-0.974;2023-01-16T07:31:31;41.67;;;4.90;;
67378;SDS011;54262;44.642;-0.974;2023-01-16T07:33:58;40.72;;;5.40;;
67378;SDS011;54262;44.642;-0.974;2023-01-16T07:36:24;44.75;;;5.72;;
67378;SDS011;54262;44.642;-0.974;2023-01-16T07:38:50;42.75;;;5.60;;
67378;SDS011;54262;44.642;-0.974;2023-01-16T07:41:16;29.38;;;5.47;;
67378;SDS011;54262;44.642;-0.974;2023-01-16T07:43:42;25.48;;;4.93;;
67378;SDS011;54262;44.642;-0.974;2023-01-16T07:46:08;31.38;;;5.28;;
67378;SDS011;54262;44.642;-0.974;2023-01-16T07:48:34;20.65;;;5.38;;
67378;SDS011;54262;44.642;-0.974;2023-01-16T07:51:00;23.85;;;4.00;;
67378;SDS011;54262;44.642;-0.974;2023-01-16T07:53:27;31.08;;;5.03;;
67378;SDS011;54262;44.642;-0.974;2023-01-16T07:55:56;20.20;;;3.88;;
67378;SDS011;54262;44.642;-0.974;2023-01-16T07:58:23;20.52;;;3.25;;
67378;SDS011;54262;44.642;-0.974;2023-01-16T08:00:51;24.27;;;4.70;;
67378;SDS011;54262;44.642;-0.974;2023-01-16T08:03:17;13.63;;;4.15;;
67378;SDS011;54262;44.642;-0.974;2023-01-16T08:05:43;31.08;;;5.85;;
67378;SDS011;54262;44.642;-0.974;2023-01-16T08:08:09;21.08;;;4.78;;
67378;SDS011;54262;44.642;-0.974;2023-01-16T08:10:35;19.25;;;4.32;;
67378;SDS011;54262;44.642;-0.974;2023-01-16T08:13:01;18.08;;;4.57;;
67378;SDS011;54262;44.642;-0.974;2023-01-16T08:15:27;28.27;;;6.22;;
67378;SDS011;54262;44.642;-0.974;2023-01-16T08:17:54;20.55;;;5.18;;
67378;SDS011;54262;44.642;-0.974;2023-01-16T08:20:20;18.90;;;3.78;;
67378;SDS011;54262;44.642;-0.974;2023-01-16T08:22:47;11.35;;;3.85;;
67378;SDS011;54262;44.642;-0.974;2023-01-16T08:25:14;21.02;;;4.35;;
67378;SDS011;54262;44.642;-0.974;2023-01-16T08:27:41;14.32;;;3.55;;
67378;SDS011;54262;44.642;-0.974;2023-01-16T08:30:07;19.25;;;3.80;;
67378;SDS011;54262;44.642;-0.974;2023-01-16T08:32:34;7.18;;;3.53;;
67378;SDS011;54262;44.642;-0.974;2023-01-16T08:35:00;17.35;;;3.95;;
67378;SDS011;54262;44.642;-0.974;2023-01-16T08:37:28;15.60;;;4.35;;
67378;SDS011;54262;44.642;-0.974;2023-01-16T08:39:54;23.77;;;5.18;;
67378;SDS011;54262;44.642;-0.974;2023-01-16T08:42:20;28.40;;;4.72;;
67378;SDS011;54262;44.642;-0.974;2023-01-16T08:45:05;18.80;;;4.35;;
67378;SDS011;54262;44.642;-0.974;2023-01-16T08:47:50;21.85;;;4.65;;
67378;SDS011;54262;44.642;-0.974;2023-01-16T08:50:35;20.50;;;4.40;;
67378;SDS011;54262;44.642;-0.974;2023-01-16T08:53:19;20.35;;;4.45;;
67378;SDS011;54262;44.642;-0.974;2023-01-16T08:55:45;17.80;;;4.13;;
67378;SDS011;54262;44.642;-0.974;2023-01-16T08:58:11;17.52;;;4.10;;
67378;SDS011;54262;44.642;-0.974;2023-01-16T09:00:37;15.82;;;3.88;;
67378;SDS011;54262;44.642;-0.974;2023-01-16T09:03:03;15.27;;;4.78;;
67378;SDS011;54262;44.642;-0.974;2023-01-16T09:05:29;13.00;;;4.10;;
67378;SDS011;54262;44.642;-0.974;2023-01-16T09:07:55;9.60;;;3.78;;
67378;SDS011;54262;44.642;-0.974;2023-01-16T09:10:22;12.98;;;4.28;;
67378;SDS011;54262;44.642;-0.974;2023-01-16T09:12:48;16.52;;;3.60;;
67378;SDS011;54262;44.642;-0.974;2023-01-16T09:15:32;9.82;;;3.85;;
67378;SDS011;54262;44.642;-0.974;2023-01-16T09:17:58;13.38;;;4.30;;
67378;SDS011;54262;44.642;-0.974;2023-01-16T09:20:24;8.93;;;3.35;;
67378;SDS011;54262;44.642;-0.974;2023-01-16T09:22:55;8.57;;;3.55;;
67378;SDS011;54262;44.642;-0.974;2023-01-16T09:25:22;10.60;;;3.50;;
67378;SDS011;54262;44.642;-0.974;2023-01-16T09:27:48;18.40;;;4.43;;
67378;SDS011;54262;44.642;-0.974;2023-01-16T09:30:14;15.65;;;4.45;;
67378;SDS011;54262;44.642;-0.974;2023-01-16T09:32:40;7.20;;;3.42;;
67378;SDS011;54262;44.642;-0.974;2023-01-16T09:35:06;8.13;;;3.22;;
67378;SDS011;54262;44.642;-0.974;2023-01-16T09:37:32;18.60;;;4.72;;
67378;SDS011;54262;44.642;-0.974;2023-01-16T09:39:58;24.38;;;5.65;;
67378;SDS011;54262;44.642;-0.974;2023-01-16T09:45:13;15.70;;;3.85;;
67378;SDS011;54262;44.642;-0.974;2023-01-16T09:47:42;9.65;;;3.55;;
67378;SDS011;54262;44.642;-0.974;2023-01-16T09:50:19;9.13;;;3.90;;
67378;SDS011;54262;44.642;-0.974;2023-01-16T09:52:47;17.15;;;4.03;;
67378;SDS011;54262;44.642;-0.974;2023-01-16T09:55:51;17.08;;;4.53;;
67378;SDS011;54262;44.642;-0.974;2023-01-16T09:58:38;24.05;;;4.32;;
67378;SDS011;54262;44.642;-0.974;2023-01-16T10:01:10;8.93;;;3.33;;
67378;SDS011;54262;44.642;-0.974;2023-01-16T10:03:38;8.68;;;3.55;;
67378;SDS011;54262;44.642;-0.974;2023-01-16T10:06:12;11.63;;;3.53;;
67378;SDS011;54262;44.642;-0.974;2023-01-16T10:11:14;9.95;;;3.53;;
67378;SDS011;54262;44.642;-0.974;2023-01-16T10:16:34;9.82;;;3.42;;
67378;SDS011;54262;44.642;-0.974;2023-01-16T10:19:16;11.88;;;3.70;;
67378;SDS011;54262;44.642;-0.974;2023-01-16T10:29:37;10.65;;;3.40;;
67378;SDS011;54262;44.642;-0.974;2023-01-16T10:32:08;10.95;;;3.47;;
67378;SDS011;54262;44.642;-0.974;2023-01-16T10:34:38;12.38;;;4.15;;
67378;SDS011;54262;44.642;-0.974;2023-01-16T10:37:05;11.38;;;4.15;;
67378;SDS011;54262;44.642;-0.974;2023-01-16T10:39:33;13.43;;;4.07;;
67378;SDS011;54262;44.642;-0.974;2023-01-16T10:42:00;14.85;;;3.55;;
67378;SDS011;54262;44.642;-0.974;2023-01-16T10:47:37;8.13;;;3.65;;
67378;SDS011;54262;44.642;-0.974;2023-01-16T10:50:22;5.90;;;3.60;;
67378;SDS011;54262;44.642;-0.974;2023-01-16T10:52:48;13.73;;;3.70;;
67378;SDS011;54262;44.642;-0.974;2023-01-16T10:55:15;17.02;;;3.53;;
67378;SDS011;54262;44.642;-0.974;2023-01-16T10:57:57;7.57;;;2.97;;
67378;SDS011;54262;44.642;-0.974;2023-01-16T11:00:25;5.32;;;3.03;;
67378;SDS011;54262;44.642;-0.974;2023-01-16T11:02:59;5.90;;;3.03;;
67378;SDS011;54262;44.642;-0.974;2023-01-16T11:07:53;6.03;;;3.33;;
67378;SDS011;54262;44.642;-0.974;2023-01-16T11:10:20;8.40;;;3.45;;
67378;SDS011;54262;44.642;-0.974;2023-01-16T11:12:46;5.88;;;2.58;;
67378;SDS011;54262;44.642;-0.974;2023-01-16T11:15:31;10.73;;;2.90;;
67378;SDS011;54262;44.642;-0.974;2023-01-16T11:20:53;3.17;;;2.00;;
67378;SDS011;54262;44.642;-0.974;2023-01-16T11:23:21;10.63;;;3.15;;
67378;SDS011;54262;44.642;-0.974;2023-01-16T11:25:48;8.88;;;3.78;;
67378;SDS011;54262;44.642;-0.974;2023-01-16T11:28:27;5.60;;;2.55;;
67378;SDS011;54262;44.642;-0.974;2023-01-16T11:30:55;5.57;;;2.40;;
67378;SDS011;54262;44.642;-0.974;2023-01-16T11:33:23;3.45;;;1.85;;
67378;SDS011;54262;44.642;-0.974;2023-01-16T11:35:51;8.88;;;2.95;;
67378;SDS011;54262;44.642;-0.974;2023-01-16T11:38:17;8.90;;;3.22;;
67378;SDS011;54262;44.642;-0.974;2023-01-16T11:40:44;7.18;;;2.92;;
67378;SDS011;54262;44.642;-0.974;2023-01-16T11:43:18;8.27;;;3.17;;
67378;SDS011;54262;44.642;-0.974;2023-01-16T11:46:50;11.13;;;3.08;;
67378;SDS011;54262;44.642;-0.974;2023-01-16T11:48:52;14.57;;;3.15;;
67378;SDS011;54262;44.642;-0.974;2023-01-16T11:51:19;13.95;;;3.42;;
67378;SDS011;54262;44.642;-0.974;2023-01-16T11:53:49;6.30;;;2.90;;
67378;SDS011;54262;44.642;-0.974;2023-01-16T12:01:52;6.15;;;2.50;;
67378;SDS011;54262;44.642;-0.974;2023-01-16T12:04:45;8.57;;;2.33;;
67378;SDS011;54262;44.642;-0.974;2023-01-16T12:07:35;7.45;;;2.72;;
67378;SDS011;54262;44.642;-0.974;2023-01-16T12:10:09;5.75;;;3.00;;
67378;SDS011;54262;44.642;-0.974;2023-01-16T12:12:46;7.93;;;3.22;;
67378;SDS011;54262;44.642;-0.974;2023-01-16T12:15:36;5.80;;;2.55;;
67378;SDS011;54262;44.642;-0.974;2023-01-16T12:18:19;7.13;;;2.30;;
67378;SDS011;54262;44.642;-0.974;2023-01-16T12:21:21;4.88;;;2.22;;
67378;SDS011;54262;44.642;-0.974;2023-01-16T12:23:50;3.25;;;1.95;;
67378;SDS011;54262;44.642;-0.974;2023-01-16T12:39:22;2.53;;;1.70;;
67378;SDS011;54262;44.642;-0.974;2023-01-16T12:57:57;3.55;;;2.05;;
67378;SDS011;54262;44.642;-0.974;2023-01-16T13:00:36;8.55;;;2.55;;
67378;SDS011;54262;44.642;-0.974;2023-01-16T13:03:39;11.13;;;2.20;;
67378;SDS011;54262;44.642;-0.974;2023-01-16T13:05:59;6.70;;;2.38;;
67378;SDS011;54262;44.642;-0.974;2023-01-16T13:08:35;6.90;;;2.45;;
67378;SDS011;54262;44.642;-0.974;2023-01-16T13:11:25;12.32;;;4.72;;
67378;SDS011;54262;44.642;-0.974;2023-01-16T13:14:08;5.77;;;2.40;;
67378;SDS011;54262;44.642;-0.974;2023-01-16T13:19:17;5.53;;;2.70;;
67378;SDS011;54262;44.642;-0.974;2023-01-16T13:21:51;12.90;;;3.05;;
67378;SDS011;54262;44.642;-0.974;2023-01-16T13:24:21;9.68;;;3.33;;
67378;SDS011;54262;44.642;-0.974;2023-01-16T13:26:52;15.73;;;3.05;;
67378;SDS011;54262;44.642;-0.974;2023-01-16T13:29:24;7.82;;;2.60;;
67378;SDS011;54262;44.642;-0.974;2023-01-16T13:32:01;11.82;;;2.63;;
67378;SDS011;54262;44.642;-0.974;2023-01-16T13:34:29;9.63;;;2.80;;
67378;SDS011;54262;44.642;-0.974;2023-01-16T13:44:40;13.25;;;3.13;;
67378;SDS011;54262;44.642;-0.974;2023-01-16T13:47:27;15.63;;;3.67;;
67378;SDS011;54262;44.642;-0.974;2023-01-16T13:49:54;11.13;;;2.65;;
67378;SDS011;54262;44.642;-0.974;2023-01-16T13:52:24;17.75;;;3.13;;
67378;SDS011;54262;44.642;-0.974;2023-01-16T13:54:52;9.60;;;2.80;;
67378;SDS011;54262;44.642;-0.974;2023-01-16T13:57:20;10.82;;;3.25;;
67378;SDS011;54262;44.642;-0.974;2023-01-16T13:59:48;9.02;;;2.88;;
67378;SDS011;54262;44.642;-0.974;2023-01-16T14:03:00;5.72;;;2.20;;
67378;SDS011;54262;44.642;-0.974;2023-01-16T14:13:13;16.38;;;2.97;;
67378;SDS011;54262;44.642;-0.974;2023-01-16T14:15:43;12.30;;;2.60;;
67378;SDS011;54262;44.642;-0.974;2023-01-16T14:23:58;12.48;;;3.22;;
67378;SDS011;54262;44.642;-0.974;2023-01-16T14:29:21;21.48;;;4.25;;
67378;SDS011;54262;44.642;-0.974;2023-01-16T14:34:57;14.00;;;3.42;;
67378;SDS011;54262;44.642;-0.974;2023-01-16T14:37:28;26.90;;;3.00;;
67378;SDS011;54262;44.642;-0.974;2023-01-16T14:39:56;20.73;;;3.20;;
67378;SDS011;54262;44.642;-0.974;2023-01-16T14:42:31;11.60;;;2.83;;
67378;SDS011;54262;44.642;-0.974;2023-01-16T14:48:11;10.55;;;3.10;;
67378;SDS011;54262;44.642;-0.974;2023-01-16T14:56:37;27.30;;;4.30;;
67378;SDS011;54262;44.642;-0.974;2023-01-16T14:59:11;15.35;;;3.67;;
67378;SDS011;54262;44.642;-0.974;2023-01-16T15:01:46;20.40;;;4.38;;
67378;SDS011;54262;44.642;-0.974;2023-01-16T15:04:37;10.35;;;2.90;;
67378;SDS011;54262;44.642;-0.974;2023-01-16T15:07:04;19.08;;;4.40;;
67378;SDS011;54262;44.642;-0.974;2023-01-16T15:09:32;16.75;;;3.60;;
67378;SDS011;54262;44.642;-0.974;2023-01-16T15:12:06;9.88;;;3.33;;
67378;SDS011;54262;44.642;-0.974;2023-01-16T15:14:33;19.75;;;4.72;;
67378;SDS011;54262;44.642;-0.974;2023-01-16T15:22:44;10.32;;;3.38;;
67378;SDS011;54262;44.642;-0.974;2023-01-16T15:27:40;19.90;;;3.03;;
67378;SDS011;54262;44.642;-0.974;2023-01-16T15:30:09;11.82;;;3.05;;
67378;SDS011;54262;44.642;-0.974;2023-01-16T15:32:56;11.80;;;3.47;;
67378;SDS011;54262;44.642;-0.974;2023-01-16T15:35:43;16.42;;;2.72;;
67378;SDS011;54262;44.642;-0.974;2023-01-16T15:38:10;19.20;;;3.80;;
67378;SDS011;54262;44.642;-0.974;2023-01-16T15:40:37;14.43;;;2.92;;
67378;SDS011;54262;44.642;-0.974;2023-01-16T15:43:03;13.75;;;3.38;;
67378;SDS011;54262;44.642;-0.974;2023-01-16T15:45:53;9.65;;;3.00;;
67378;SDS011;54262;44.642;-0.974;2023-01-16T15:48:52;10.68;;;2.78;;
67378;SDS011;54262;44.642;-0.974;2023-01-16T15:51:22;17.05;;;3.70;;
67378;SDS011;54262;44.642;-0.974;2023-01-16T15:53:48;11.60;;;3.20;;
67378;SDS011;54262;44.642;-0.974;2023-01-16T15:56:38;25.75;;;5.55;;
67378;SDS011;54262;44.642;-0.974;2023-01-16T15:59:04;13.43;;;3.05;;
67378;SDS011;54262;44.642;-0.974;2023-01-16T16:01:45;15.35;;;3.92;;
67378;SDS011;54262;44.642;-0.974;2023-01-16T16:04:11;15.05;;;3.55;;
67378;SDS011;54262;44.642;-0.974;2023-01-16T16:06:37;11.48;;;3.33;;
67378;SDS011;54262;44.642;-0.974;2023-01-16T16:09:05;14.23;;;3.83;;
67378;SDS011;54262;44.642;-0.974;2023-01-16T16:11:32;14.00;;;3.28;;
67378;SDS011;54262;44.642;-0.974;2023-01-16T16:14:32;23.23;;;3.65;;
67378;SDS011;54262;44.642;-0.974;2023-01-16T16:17:24;11.40;;;3.78;;
67378;SDS011;54262;44.642;-0.974;2023-01-16T16:25:28;17.00;;;4.10;;
67378;SDS011;54262;44.642;-0.974;2023-01-16T16:27:54;21.63;;;4.25;;
67378;SDS011;54262;44.642;-0.974;2023-01-16T16:30:22;10.82;;;3.30;;
67378;SDS011;54262;44.642;-0.974;2023-01-16T16:32:49;13.23;;;3.92;;
67378;SDS011;54262;44.642;-0.974;2023-01-16T16:35:29;28.33;;;5.80;;
67378;SDS011;54262;44.642;-0.974;2023-01-16T16:37:57;7.28;;;2.78;;
67378;SDS011;54262;44.642;-0.974;2023-01-16T16:40:23;8.15;;;2.67;;
67378;SDS011;54262;44.642;-0.974;2023-01-16T16:47:45;12.48;;;3.25;;
67378;SDS011;54262;44.642;-0.974;2023-01-16T16:50:31;9.07;;;1.77;;
67378;SDS011;54262;44.642;-0.974;2023-01-16T16:53:04;15.55;;;3.88;;
67378;SDS011;54262;44.642;-0.974;2023-01-16T16:55:40;9.15;;;2.40;;
67378;SDS011;54262;44.642;-0.974;2023-01-16T16:58:14;23.40;;;12.93;;
67378;SDS011;54262;44.642;-0.974;2023-01-16T17:00:40;9.80;;;6.40;;
67378;SDS011;54262;44.642;-0.974;2023-01-16T17:03:15;9.75;;;4.65;;
67378;SDS011;54262;44.642;-0.974;2023-01-16T17:05:42;12.73;;;5.18;;
67378;SDS011;54262;44.642;-0.974;2023-01-16T17:08:29;11.93;;;4.00;;
67378;SDS011;54262;44.642;-0.974;2023-01-16T17:10:55;8.52;;;3.00;;
67378;SDS011;54262;44.642;-0.974;2023-01-16T17:13:22;11.40;;;4.13;;
67378;SDS011;54262;44.642;-0.974;2023-01-16T17:15:49;9.15;;;4.22;;
67378;SDS011;54262;44.642;-0.974;2023-01-16T17:18:15;11.15;;;4.65;;
67378;SDS011;54262;44.642;-0.974;2023-01-16T17:20:42;18.00;;;6.38;;
67378;SDS011;54262;44.642;-0.974;2023-01-16T17:23:11;8.70;;;6.25;;
67378;SDS011;54262;44.642;-0.974;2023-01-16T17:25:38;7.65;;;5.35;;
67378;SDS011;54262;44.642;-0.974;2023-01-16T17:28:04;14.85;;;4.20;;
67378;SDS011;54262;44.642;-0.974;2023-01-16T17:30:30;7.53;;;4.55;;
67378;SDS011;54262;44.642;-0.974;2023-01-16T17:32:57;12.15;;;4.28;;
67378;SDS011;54262;44.642;-0.974;2023-01-16T17:35:24;10.48;;;3.60;;
67378;SDS011;54262;44.642;-0.974;2023-01-16T17:37:50;9.18;;;3.13;;
67378;SDS011;54262;44.642;-0.974;2023-01-16T17:40:16;9.63;;;3.65;;